sensor_id;sensor_type;location;lat;lon;timestamp;temperature;humidity
30047;DHT22;16878;52.542;13.426;2022-12-05T00:00:56;3.00;99.90
30047;DHT22;16878;52.542;13.426;2022-12-05T00:03:22;3.10;99.90
30047;DHT22;16878;52.542;13.426;2022-12-05T00:05:48;3.10;99.90
30047;DHT22;16878;52.542;13.426;2022-12-05T00:08:13;3.10;99.90
30047;DHT22;16878;52.542;13.426;2022-12-05T00:10:39;3.10;99.90
30047;DHT22;16878;52.542;13.426;2022-12-05T00:13:04;3.00;99.90
30047;DHT22;16878;52.542;13.426;2022-12-05T00:15:30;3.00;99.90
30047;DHT22;16878;52.542;13.426;2022-12-05T00:17:56;3.00;99.90
30047;DHT22;16878;52.542;13.426;2022-12-05T00:20:21;3.00;99.90
30047;DHT22;16878;52.542;13.426;2022-12-05T00:22:47;3.00;99.90
30047;DHT22;16878;52.542;13.426;2022-12-05T00:25:12;3.00;99.90
30047;DHT22;16878;52.542;13.426;2022-12-05T00:27:38;3.10;99.90
30047;DHT22;16878;52.542;13.426;2022-12-05T00:30:04;3.10;99.90
30047;DHT22;16878;52.542;13.426;2022-12-05T00:32:30;3.10;99.90
30047;DHT22;16878;52.542;13.426;2022-12-05T00:34:56;3.10;99.90
30047;DHT22;16878;52.542;13.426;2022-12-05T00:37:21;3.10;99.90
30047;DHT22;16878;52.542;13.426;2022-12-05T00:39:47;3.00;99.90
30047;DHT22;16878;52.542;13.426;2022-12-05T00:42:12;3.10;99.90
30047;DHT22;16878;52.542;13.426;2022-12-05T00:44:38;3.10;99.90
30047;DHT22;16878;52.542;13.426;2022-12-05T00:47:04;3.10;99.90
30047;DHT22;16878;52.542;13.426;2022-12-05T00:49:29;3.10;99.90
30047;DHT22;16878;52.542;13.426;2022-12-05T00:51:55;3.10;99.90
30047;DHT22;16878;52.542;13.426;2022-12-05T00:54:20;3.10;99.90
30047;DHT22;16878;52.542;13.426;2022-12-05T00:56:46;3.10;99.90
30047;DHT22;16878;52.542;13.426;2022-12-05T00:59:13;3.20;99.90
30047;DHT22;16878;52.542;13.426;2022-12-05T01:01:40;3.10;99.90
30047;DHT22;16878;52.542;13.426;2022-12-05T01:04:11;3.20;99.90
30047;DHT22;16878;52.542;13.426;2022-12-05T01:06:37;3.10;99.90
30047;DHT22;16878;52.542;13.426;2022-12-05T01:09:03;3.20;99.90
30047;DHT22;16878;52.542;13.426;2022-12-05T01:11:30;3.10;99.90
30047;DHT22;16878;52.542;13.426;2022-12-05T01:13:56;3.20;99.90
30047;DHT22;16878;52.542;13.426;2022-12-05T01:16:31;3.20;99.90
30047;DHT22;16878;52.542;13.426;2022-12-05T01:18:57;3.20;99.90
30047;DHT22;16878;52.542;13.426;2022-12-05T01:21:23;3.20;99.90
30047;DHT22;16878;52.542;13.426;2022-12-05T01:23:49;3.20;99.90
30047;DHT22;16878;52.542;13.426;2022-12-05T01:26:15;3.20;99.90
30047;DHT22;16878;52.542;13.426;2022-12-05T01:28:41;3.20;99.90
30047;DHT22;16878;52.542;13.426;2022-12-05T01:31:08;3.10;99.90
30047;DHT22;16878;52.542;13.426;2022-12-05T01:33:34;3.10;99.90
30047;DHT22;16878;52.542;13.426;2022-12-05T01:36:00;3.10;99.90
30047;DHT22;16878;52.542;13.426;2022-12-05T01:38:26;3.10;99.90
30047;DHT22;16878;52.542;13.426;2022-12-05T01:40:58;3.20;99.90
30047;DHT22;16878;52.542;13.426;2022-12-05T01:43:24;3.20;99.90
30047;DHT22;16878;52.542;13.426;2022-12-05T01:45:50;3.20;99.90
30047;DHT22;16878;52.542;13.426;2022-12-05T01:48:17;3.20;99.90
30047;DHT22;16878;52.542;13.426;2022-12-05T01:50:43;3.20;99.90
30047;DHT22;16878;52.542;13.426;2022-12-05T01:53:09;3.20;99.90
30047;DHT22;16878;52.542;13.426;2022-12-05T01:55:35;3.20;99.90
30047;DHT22;16878;52.542;13.426;2022-12-05T01:58:01;3.20;99.90
30047;DHT22;16878;52.542;13.426;2022-12-05T02:00:27;3.20;99.90
30047;DHT22;16878;52.542;13.426;2022-12-05T02:02:54;3.20;99.90
30047;DHT22;16878;52.542;13.426;2022-12-05T02:05:22;3.20;99.90
30047;DHT22;16878;52.542;13.426;2022-12-05T02:07:49;3.20;99.90
30047;DHT22;16878;52.542;13.426;2022-12-05T02:10:15;3.30;99.90
30047;DHT22;16878;52.542;13.426;2022-12-05T02:12:41;3.20;99.90
30047;DHT22;16878;52.542;13.426;2022-12-05T02:20:17;3.20;99.90
30047;DHT22;16878;52.542;13.426;2022-12-05T02:22:49;3.20;99.90
30047;DHT22;16878;52.542;13.426;2022-12-05T02:30:49;3.20;99.90
30047;DHT22;16878;52.542;13.426;2022-12-05T02:33:33;3.20;99.90
30047;DHT22;16878;52.542;13.426;2022-12-05T02:36:06;3.20;99.90
30047;DHT22;16878;52.542;13.426;2022-12-05T02:38:39;3.20;99.90
30047;DHT22;16878;52.542;13.426;2022-12-05T02:41:11;3.20;99.90
30047;DHT22;16878;52.542;13.426;2022-12-05T02:46:08;3.20;99.90
30047;DHT22;16878;52.542;13.426;2022-12-05T02:48:34;3.20;99.90
30047;DHT22;16878;52.542;13.426;2022-12-05T02:51:00;3.20;99.90
30047;DHT22;16878;52.542;13.426;2022-12-05T02:53:26;3.20;99.90
30047;DHT22;16878;52.542;13.426;2022-12-05T02:55:53;3.20;99.90
30047;DHT22;16878;52.542;13.426;2022-12-05T02:58:23;3.20;99.90
30047;DHT22;16878;52.542;13.426;2022-12-05T03:00:49;3.20;99.90
30047;DHT22;16878;52.542;13.426;2022-12-05T03:03:18;3.20;99.90
30047;DHT22;16878;52.542;13.426;2022-12-05T03:08:15;3.20;99.90
30047;DHT22;16878;52.542;13.426;2022-12-05T03:10:43;3.20;99.90
30047;DHT22;16878;52.542;13.426;2022-12-05T03:13:11;3.20;99.90
30047;DHT22;16878;52.542;13.426;2022-12-05T03:15:39;3.20;99.90
30047;DHT22;16878;52.542;13.426;2022-12-05T03:18:08;3.20;99.90
30047;DHT22;16878;52.542;13.426;2022-12-05T03:21:12;3.20;99.90
30047;DHT22;16878;52.542;13.426;2022-12-05T03:23:34;3.20;99.90
30047;DHT22;16878;52.542;13.426;2022-12-05T03:26:10;3.20;99.90
30047;DHT22;16878;52.542;13.426;2022-12-05T03:31:11;3.20;99.90
30047;DHT22;16878;52.542;13.426;2022-12-05T03:33:41;3.20;99.90
30047;DHT22;16878;52.542;13.426;2022-12-05T03:36:10;3.20;99.90
30047;DHT22;16878;52.542;13.426;2022-12-05T03:38:56;3.20;99.90
30047;DHT22;16878;52.542;13.426;2022-12-05T03:46:29;3.20;99.90
30047;DHT22;16878;52.542;13.426;2022-12-05T03:51:24;3.20;99.90
30047;DHT22;16878;52.542;13.426;2022-12-05T03:53:52;3.20;99.90
30047;DHT22;16878;52.542;13.426;2022-12-05T03:56:22;3.20;99.90
30047;DHT22;16878;52.542;13.426;2022-12-05T04:01:15;3.20;99.90
30047;DHT22;16878;52.542;13.426;2022-12-05T04:03:46;3.20;99.90
30047;DHT22;16878;52.542;13.426;2022-12-05T04:06:29;3.30;99.90
30047;DHT22;16878;52.542;13.426;2022-12-05T04:08:57;3.30;99.90
30047;DHT22;16878;52.542;13.426;2022-12-05T04:11:24;3.20;99.90
30047;DHT22;16878;52.542;13.426;2022-12-05T04:13:55;3.20;99.90
30047;DHT22;16878;52.542;13.426;2022-12-05T04:16:26;3.20;99.90
30047;DHT22;16878;52.542;13.426;2022-12-05T04:22:27;3.20;99.90
30047;DHT22;16878;52.542;13.426;2022-12-05T04:24:53;3.20;99.90
30047;DHT22;16878;52.542;13.426;2022-12-05T04:27:45;3.20;99.90
30047;DHT22;16878;52.542;13.426;2022-12-05T04:30:22;3.20;99.90
30047;DHT22;16878;52.542;13.426;2022-12-05T04:32:51;3.20;99.90
30047;DHT22;16878;52.542;13.426;2022-12-05T04:35:36;3.30;99.90
30047;DHT22;16878;52.542;13.426;2022-12-05T04:38:08;3.20;99.90
30047;DHT22;16878;52.542;13.426;2022-12-05T04:40:47;3.30;99.90
30047;DHT22;16878;52.542;13.426;2022-12-05T04:43:13;3.20;99.90
30047;DHT22;16878;52.542;13.426;2022-12-05T04:45:40;3.20;99.90
30047;DHT22;16878;52.542;13.426;2022-12-05T04:48:09;3.30;99.90
30047;DHT22;16878;52.542;13.426;2022-12-05T04:50:36;3.20;99.90
30047;DHT22;16878;52.542;13.426;2022-12-05T04:53:02;3.20;99.90
30047;DHT22;16878;52.542;13.426;2022-12-05T04:55:29;3.20;99.90
30047;DHT22;16878;52.542;13.426;2022-12-05T05:00:21;3.20;99.90
30047;DHT22;16878;52.542;13.426;2022-12-05T05:02:49;3.20;99.90
30047;DHT22;16878;52.542;13.426;2022-12-05T05:05:17;3.30;99.90
30047;DHT22;16878;52.542;13.426;2022-12-05T05:07:47;3.30;99.90
30047;DHT22;16878;52.542;13.426;2022-12-05T05:10:14;3.20;99.90
30047;DHT22;16878;52.542;13.426;2022-12-05T05:12:40;3.20;99.90
30047;DHT22;16878;52.542;13.426;2022-12-05T05:15:06;3.20;99.90
30047;DHT22;16878;52.542;13.426;2022-12-05T05:17:31;3.20;99.90
30047;DHT22;16878;52.542;13.426;2022-12-05T05:20:00;3.20;99.90
30047;DHT22;16878;52.542;13.426;2022-12-05T05:22:46;3.20;99.90
30047;DHT22;16878;52.542;13.426;2022-12-05T05:25:12;3.20;99.90
30047;DHT22;16878;52.542;13.426;2022-12-05T05:27:37;3.20;99.90
30047;DHT22;16878;52.542;13.426;2022-12-05T05:30:03;3.20;99.90
30047;DHT22;16878;52.542;13.426;2022-12-05T05:32:31;3.20;99.90
30047;DHT22;16878;52.542;13.426;2022-12-05T05:34:56;3.30;99.90
30047;DHT22;16878;52.542;13.426;2022-12-05T05:37:22;3.30;99.90
30047;DHT22;16878;52.542;13.426;2022-12-05T05:39:47;3.30;99.90
30047;DHT22;16878;52.542;13.426;2022-12-05T05:42:13;3.30;99.90
30047;DHT22;16878;52.542;13.426;2022-12-05T05:44:38;3.20;99.90
30047;DHT22;16878;52.542;13.426;2022-12-05T05:47:04;3.30;99.90
30047;DHT22;16878;52.542;13.426;2022-12-05T05:49:32;3.30;99.90
30047;DHT22;16878;52.542;13.426;2022-12-05T05:51:58;3.20;99.90
30047;DHT22;16878;52.542;13.426;2022-12-05T05:54:24;3.30;99.90
30047;DHT22;16878;52.542;13.426;2022-12-05T05:56:49;3.30;99.90
30047;DHT22;16878;52.542;13.426;2022-12-05T05:59:15;3.30;99.90
30047;DHT22;16878;52.542;13.426;2022-12-05T06:01:40;3.20;99.90
30047;DHT22;16878;52.542;13.426;2022-12-05T06:04:06;3.30;99.90
30047;DHT22;16878;52.542;13.426;2022-12-05T06:06:32;3.30;99.90
30047;DHT22;16878;52.542;13.426;2022-12-05T06:08:57;3.30;99.90
30047;DHT22;16878;52.542;13.426;2022-12-05T06:11:24;3.30;99.90
30047;DHT22;16878;52.542;13.426;2022-12-05T06:13:50;3.30;99.90
30047;DHT22;16878;52.542;13.426;2022-12-05T06:16:16;3.30;99.90
30047;DHT22;16878;52.542;13.426;2022-12-05T06:18:42;3.30;99.90
30047;DHT22;16878;52.542;13.426;2022-12-05T06:21:08;3.30;99.90
30047;DHT22;16878;52.542;13.426;2022-12-05T06:23:35;3.30;99.90
30047;DHT22;16878;52.542;13.426;2022-12-05T06:26:04;3.30;99.90
30047;DHT22;16878;52.542;13.426;2022-12-05T06:28:30;3.30;99.90
30047;DHT22;16878;52.542;13.426;2022-12-05T06:30:56;3.30;99.90
30047;DHT22;16878;52.542;13.426;2022-12-05T06:33:21;3.30;99.90
30047;DHT22;16878;52.542;13.426;2022-12-05T06:35:47;3.40;99.90
30047;DHT22;16878;52.542;13.426;2022-12-05T06:38:12;3.40;99.90
30047;DHT22;16878;52.542;13.426;2022-12-05T06:40:42;3.40;99.90
30047;DHT22;16878;52.542;13.426;2022-12-05T06:43:07;3.30;99.90
30047;DHT22;16878;52.542;13.426;2022-12-05T06:45:33;3.40;99.90
30047;DHT22;16878;52.542;13.426;2022-12-05T06:47:59;3.40;99.90
30047;DHT22;16878;52.542;13.426;2022-12-05T06:50:24;3.40;99.90
30047;DHT22;16878;52.542;13.426;2022-12-05T06:52:53;3.40;99.90
30047;DHT22;16878;52.542;13.426;2022-12-05T06:55:18;3.40;99.90
30047;DHT22;16878;52.542;13.426;2022-12-05T06:57:44;3.40;99.90
30047;DHT22;16878;52.542;13.426;2022-12-05T07:00:09;3.40;99.90
30047;DHT22;16878;52.542;13.426;2022-12-05T07:02:54;3.40;99.90
30047;DHT22;16878;52.542;13.426;2022-12-05T07:05:19;3.40;99.90
30047;DHT22;16878;52.542;13.426;2022-12-05T07:07:45;3.40;99.90
30047;DHT22;16878;52.542;13.426;2022-12-05T07:10:10;3.40;99.90
30047;DHT22;16878;52.542;13.426;2022-12-05T07:12:36;3.40;99.90
30047;DHT22;16878;52.542;13.426;2022-12-05T07:15:01;3.40;99.90
30047;DHT22;16878;52.542;13.426;2022-12-05T07:17:27;3.40;99.90
30047;DHT22;16878;52.542;13.426;2022-12-05T07:19:53;3.40;99.90
30047;DHT22;16878;52.542;13.426;2022-12-05T07:22:19;3.40;99.90
30047;DHT22;16878;52.542;13.426;2022-12-05T07:24:45;3.40;99.90
30047;DHT22;16878;52.542;13.426;2022-12-05T07:27:12;3.40;99.90
30047;DHT22;16878;52.542;13.426;2022-12-05T07:29:37;3.40;99.90
30047;DHT22;16878;52.542;13.426;2022-12-05T07:32:03;3.40;99.90
30047;DHT22;16878;52.542;13.426;2022-12-05T07:34:29;3.40;99.90
30047;DHT22;16878;52.542;13.426;2022-12-05T07:36:54;3.40;99.90
30047;DHT22;16878;52.542;13.426;2022-12-05T07:39:20;3.40;99.90
30047;DHT22;16878;52.542;13.426;2022-12-05T07:41:45;3.40;99.90
30047;DHT22;16878;52.542;13.426;2022-12-05T07:44:11;3.50;99.90
30047;DHT22;16878;52.542;13.426;2022-12-05T07:46:37;3.50;99.90
30047;DHT22;16878;52.542;13.426;2022-12-05T07:49:06;3.40;99.90
30047;DHT22;16878;52.542;13.426;2022-12-05T07:51:31;3.40;99.90
30047;DHT22;16878;52.542;13.426;2022-12-05T07:53:58;3.40;99.90
30047;DHT22;16878;52.542;13.426;2022-12-05T07:56:24;3.50;99.90
30047;DHT22;16878;52.542;13.426;2022-12-05T07:58:50;3.50;99.90
30047;DHT22;16878;52.542;13.426;2022-12-05T08:01:20;3.50;99.90
30047;DHT22;16878;52.542;13.426;2022-12-05T08:03:46;3.50;99.90
30047;DHT22;16878;52.542;13.426;2022-12-05T08:06:13;3.50;99.90
30047;DHT22;16878;52.542;13.426;2022-12-05T08:08:39;3.50;99.90
30047;DHT22;16878;52.542;13.426;2022-12-05T08:11:10;3.50;99.90
30047;DHT22;16878;52.542;13.426;2022-12-05T08:13:35;3.40;99.90
30047;DHT22;16878;52.542;13.426;2022-12-05T08:16:05;3.50;99.90
30047;DHT22;16878;52.542;13.426;2022-12-05T08:18:31;3.50;99.90
30047;DHT22;16878;52.542;13.426;2022-12-05T08:21:07;3.50;99.90
30047;DHT22;16878;52.542;13.426;2022-12-05T08:23:33;3.50;99.90
30047;DHT22;16878;52.542;13.426;2022-12-05T08:26:00;3.50;99.90
30047;DHT22;16878;52.542;13.426;2022-12-05T08:28:26;3.60;99.90
30047;DHT22;16878;52.542;13.426;2022-12-05T08:30:51;3.50;99.90
30047;DHT22;16878;52.542;13.426;2022-12-05T08:33:17;3.50;99.90
30047;DHT22;16878;52.542;13.426;2022-12-05T08:35:42;3.60;99.90
30047;DHT22;16878;52.542;13.426;2022-12-05T08:38:08;3.50;99.90
30047;DHT22;16878;52.542;13.426;2022-12-05T08:40:33;3.50;99.90
30047;DHT22;16878;52.542;13.426;2022-12-05T08:42:59;3.50;99.90
30047;DHT22;16878;52.542;13.426;2022-12-05T08:45:25;3.50;99.90
30047;DHT22;16878;52.542;13.426;2022-12-05T08:47:50;3.60;99.90
30047;DHT22;16878;52.542;13.426;2022-12-05T08:50:16;3.50;99.90
30047;DHT22;16878;52.542;13.426;2022-12-05T08:52:41;3.50;99.90
30047;DHT22;16878;52.542;13.426;2022-12-05T08:55:09;3.50;99.90
30047;DHT22;16878;52.542;13.426;2022-12-05T08:57:35;3.50;99.90
30047;DHT22;16878;52.542;13.426;2022-12-05T09:00:01;3.50;99.90
30047;DHT22;16878;52.542;13.426;2022-12-05T09:02:26;3.50;99.90
30047;DHT22;16878;52.542;13.426;2022-12-05T09:04:52;3.60;99.90
30047;DHT22;16878;52.542;13.426;2022-12-05T09:07:18;3.60;99.90
30047;DHT22;16878;52.542;13.426;2022-12-05T09:09:44;3.60;99.90
30047;DHT22;16878;52.542;13.426;2022-12-05T09:12:10;3.60;99.90
30047;DHT22;16878;52.542;13.426;2022-12-05T09:14:35;3.60;99.90
30047;DHT22;16878;52.542;13.426;2022-12-05T09:17:01;3.50;99.90
30047;DHT22;16878;52.542;13.426;2022-12-05T09:19:28;3.60;99.90
30047;DHT22;16878;52.542;13.426;2022-12-05T09:21:55;3.50;99.90
30047;DHT22;16878;52.542;13.426;2022-12-05T09:24:21;3.50;99.90
30047;DHT22;16878;52.542;13.426;2022-12-05T09:26:47;3.50;99.90
30047;DHT22;16878;52.542;13.426;2022-12-05T09:29:12;3.50;99.90
30047;DHT22;16878;52.542;13.426;2022-12-05T09:31:38;3.60;99.90
30047;DHT22;16878;52.542;13.426;2022-12-05T09:34:07;3.60;99.90
30047;DHT22;16878;52.542;13.426;2022-12-05T09:36:32;3.50;99.90
30047;DHT22;16878;52.542;13.426;2022-12-05T09:38:59;3.60;99.90
30047;DHT22;16878;52.542;13.426;2022-12-05T09:46:51;3.60;99.90
30047;DHT22;16878;52.542;13.426;2022-12-05T09:49:19;3.60;99.90
30047;DHT22;16878;52.542;13.426;2022-12-05T09:51:45;3.60;99.90
30047;DHT22;16878;52.542;13.426;2022-12-05T09:54:14;3.60;99.90
30047;DHT22;16878;52.542;13.426;2022-12-05T09:56:41;3.60;99.90
30047;DHT22;16878;52.542;13.426;2022-12-05T09:59:10;3.60;99.90
30047;DHT22;16878;52.542;13.426;2022-12-05T10:01:40;3.70;99.90
30047;DHT22;16878;52.542;13.426;2022-12-05T10:09:22;3.60;99.90
30047;DHT22;16878;52.542;13.426;2022-12-05T10:11:54;3.60;99.90
30047;DHT22;16878;52.542;13.426;2022-12-05T10:14:56;3.60;99.90
30047;DHT22;16878;52.542;13.426;2022-12-05T10:17:25;3.70;99.90
30047;DHT22;16878;52.542;13.426;2022-12-05T10:19:51;3.60;99.90
30047;DHT22;16878;52.542;13.426;2022-12-05T10:25:02;3.70;99.90
30047;DHT22;16878;52.542;13.426;2022-12-05T10:29:58;3.70;99.90
30047;DHT22;16878;52.542;13.426;2022-12-05T10:35:12;3.70;99.90
30047;DHT22;16878;52.542;13.426;2022-12-05T10:37:38;3.70;99.90
30047;DHT22;16878;52.542;13.426;2022-12-05T10:40:05;3.70;99.90
30047;DHT22;16878;52.542;13.426;2022-12-05T10:42:31;3.70;99.90
30047;DHT22;16878;52.542;13.426;2022-12-05T10:45:01;3.70;99.90
30047;DHT22;16878;52.542;13.426;2022-12-05T10:47:27;3.70;99.90
30047;DHT22;16878;52.542;13.426;2022-12-05T10:49:54;3.70;99.90
30047;DHT22;16878;52.542;13.426;2022-12-05T10:52:20;3.70;99.90
30047;DHT22;16878;52.542;13.426;2022-12-05T10:54:48;3.80;99.90
30047;DHT22;16878;52.542;13.426;2022-12-05T10:57:21;3.80;99.90
30047;DHT22;16878;52.542;13.426;2022-12-05T10:59:47;3.80;99.90
30047;DHT22;16878;52.542;13.426;2022-12-05T11:02:24;3.80;99.90
30047;DHT22;16878;52.542;13.426;2022-12-05T11:04:50;3.80;99.90
30047;DHT22;16878;52.542;13.426;2022-12-05T11:07:28;3.80;99.90
30047;DHT22;16878;52.542;13.426;2022-12-05T11:09:54;3.90;99.90
30047;DHT22;16878;52.542;13.426;2022-12-05T11:12:21;3.90;99.90
30047;DHT22;16878;52.542;13.426;2022-12-05T11:17:30;3.90;99.90
30047;DHT22;16878;52.542;13.426;2022-12-05T11:19:56;3.90;99.90
30047;DHT22;16878;52.542;13.426;2022-12-05T11:22:34;3.90;99.90
30047;DHT22;16878;52.542;13.426;2022-12-05T11:25:00;3.90;99.90
30047;DHT22;16878;52.542;13.426;2022-12-05T11:27:46;3.90;99.90
30047;DHT22;16878;52.542;13.426;2022-12-05T11:32:37;3.90;99.90
30047;DHT22;16878;52.542;13.426;2022-12-05T11:48:27;4.10;99.90
30047;DHT22;16878;52.542;13.426;2022-12-05T12:06:27;4.00;99.90
30047;DHT22;16878;52.542;13.426;2022-12-05T12:09:00;4.00;99.90
30047;DHT22;16878;52.542;13.426;2022-12-05T12:11:30;4.00;99.90
30047;DHT22;16878;52.542;13.426;2022-12-05T12:14:16;4.00;99.90
30047;DHT22;16878;52.542;13.426;2022-12-05T12:35:01;4.10;99.90
30047;DHT22;16878;52.542;13.426;2022-12-05T12:40:13;4.10;99.90
30047;DHT22;16878;52.542;13.426;2022-12-05T12:48:01;4.10;99.90
30047;DHT22;16878;52.542;13.426;2022-12-05T12:50:32;4.00;99.90
30047;DHT22;16878;52.542;13.426;2022-12-05T12:56:10;4.10;99.90
30047;DHT22;16878;52.542;13.426;2022-12-05T12:58:34;4.00;99.90
30047;DHT22;16878;52.542;13.426;2022-12-05T13:01:14;4.00;99.90
30047;DHT22;16878;52.542;13.426;2022-12-05T13:06:22;4.00;99.90
30047;DHT22;16878;52.542;13.426;2022-12-05T13:08:56;4.00;99.90
30047;DHT22;16878;52.542;13.426;2022-12-05T13:11:23;4.00;99.90
30047;DHT22;16878;52.542;13.426;2022-12-05T13:13:50;4.00;99.90
30047;DHT22;16878;52.542;13.426;2022-12-05T13:16:27;4.10;99.90
30047;DHT22;16878;52.542;13.426;2022-12-05T13:18:54;4.10;99.90
30047;DHT22;16878;52.542;13.426;2022-12-05T13:21:20;4.10;99.90
30047;DHT22;16878;52.542;13.426;2022-12-05T13:23:51;4.10;99.90
30047;DHT22;16878;52.542;13.426;2022-12-05T13:26:17;4.10;99.90
30047;DHT22;16878;52.542;13.426;2022-12-05T13:28:48;4.10;99.90
30047;DHT22;16878;52.542;13.426;2022-12-05T13:31:14;4.10;99.90
30047;DHT22;16878;52.542;13.426;2022-12-05T13:33:42;4.10;99.90
30047;DHT22;16878;52.542;13.426;2022-12-05T13:36:12;4.10;99.90
30047;DHT22;16878;52.542;13.426;2022-12-05T13:38:57;4.10;99.90
30047;DHT22;16878;52.542;13.426;2022-12-05T13:41:43;4.10;99.90
30047;DHT22;16878;52.542;13.426;2022-12-05T13:44:32;4.20;99.90
30047;DHT22;16878;52.542;13.426;2022-12-05T13:46:59;4.10;99.90
30047;DHT22;16878;52.542;13.426;2022-12-05T13:49:28;4.10;99.90
30047;DHT22;16878;52.542;13.426;2022-12-05T13:52:02;4.10;99.90
30047;DHT22;16878;52.542;13.426;2022-12-05T13:54:30;4.20;99.90
30047;DHT22;16878;52.542;13.426;2022-12-05T13:56:58;4.20;99.90
30047;DHT22;16878;52.542;13.426;2022-12-05T14:04:54;4.20;99.90
30047;DHT22;16878;52.542;13.426;2022-12-05T14:07:36;4.10;99.90
30047;DHT22;16878;52.542;13.426;2022-12-05T14:10:02;4.20;99.90
30047;DHT22;16878;52.542;13.426;2022-12-05T14:12:28;4.20;99.90
30047;DHT22;16878;52.542;13.426;2022-12-05T14:17:32;4.10;99.90
30047;DHT22;16878;52.542;13.426;2022-12-05T14:20:21;4.10;99.90
30047;DHT22;16878;52.542;13.426;2022-12-05T14:22:56;4.10;99.90
30047;DHT22;16878;52.542;13.426;2022-12-05T14:25:34;4.10;99.90
30047;DHT22;16878;52.542;13.426;2022-12-05T14:28:12;4.20;99.90
30047;DHT22;16878;52.542;13.426;2022-12-05T14:33:14;4.20;99.90
30047;DHT22;16878;52.542;13.426;2022-12-05T14:35:45;4.20;99.90
30047;DHT22;16878;52.542;13.426;2022-12-05T14:38:28;4.20;99.90
30047;DHT22;16878;52.542;13.426;2022-12-05T14:40:55;4.20;99.90
30047;DHT22;16878;52.542;13.426;2022-12-05T14:43:29;4.20;99.90
30047;DHT22;16878;52.542;13.426;2022-12-05T14:45:57;4.20;99.90
30047;DHT22;16878;52.542;13.426;2022-12-05T14:48:28;4.20;99.90
30047;DHT22;16878;52.542;13.426;2022-12-05T14:50:55;4.20;99.90
30047;DHT22;16878;52.542;13.426;2022-12-05T15:01:23;4.20;99.90
30047;DHT22;16878;52.542;13.426;2022-12-05T15:03:58;4.20;99.90
30047;DHT22;16878;52.542;13.426;2022-12-05T15:06:27;4.20;99.90
30047;DHT22;16878;52.542;13.426;2022-12-05T15:08:54;4.20;99.90
30047;DHT22;16878;52.542;13.426;2022-12-05T15:11:21;4.20;99.90
30047;DHT22;16878;52.542;13.426;2022-12-05T15:14:08;4.20;99.90
30047;DHT22;16878;52.542;13.426;2022-12-05T15:16:41;4.20;99.90
30047;DHT22;16878;52.542;13.426;2022-12-05T15:19:14;4.20;99.90
30047;DHT22;16878;52.542;13.426;2022-12-05T15:21:41;4.20;99.90
30047;DHT22;16878;52.542;13.426;2022-12-05T15:24:17;4.20;99.90
30047;DHT22;16878;52.542;13.426;2022-12-05T15:26:44;4.20;99.90
30047;DHT22;16878;52.542;13.426;2022-12-05T15:31:57;4.20;99.90
30047;DHT22;16878;52.542;13.426;2022-12-05T15:36:50;4.30;99.90
30047;DHT22;16878;52.542;13.426;2022-12-05T15:39:17;4.30;99.90
30047;DHT22;16878;52.542;13.426;2022-12-05T15:41:44;4.30;99.90
30047;DHT22;16878;52.542;13.426;2022-12-05T15:44:10;4.30;99.90
30047;DHT22;16878;52.542;13.426;2022-12-05T15:46:36;4.30;99.90
30047;DHT22;16878;52.542;13.426;2022-12-05T15:49:14;4.40;99.90
30047;DHT22;16878;52.542;13.426;2022-12-05T15:51:40;4.30;99.90
30047;DHT22;16878;52.542;13.426;2022-12-05T15:54:07;4.30;99.90
30047;DHT22;16878;52.542;13.426;2022-12-05T15:56:45;4.30;99.90
30047;DHT22;16878;52.542;13.426;2022-12-05T15:59:17;4.30;99.90
30047;DHT22;16878;52.542;13.426;2022-12-05T16:01:45;4.30;99.90
30047;DHT22;16878;52.542;13.426;2022-12-05T16:04:14;4.30;99.90
30047;DHT22;16878;52.542;13.426;2022-12-05T16:06:43;4.30;99.90
30047;DHT22;16878;52.542;13.426;2022-12-05T16:09:16;4.30;99.90
30047;DHT22;16878;52.542;13.426;2022-12-05T16:14:29;4.30;99.90
30047;DHT22;16878;52.542;13.426;2022-12-05T16:16:57;4.30;99.90
30047;DHT22;16878;52.542;13.426;2022-12-05T16:19:24;4.30;99.90
30047;DHT22;16878;52.542;13.426;2022-12-05T16:24:46;4.30;99.90
30047;DHT22;16878;52.542;13.426;2022-12-05T16:27:24;4.30;99.90
30047;DHT22;16878;52.542;13.426;2022-12-05T16:32:36;4.40;99.90
30047;DHT22;16878;52.542;13.426;2022-12-05T16:35:02;4.30;99.90
30047;DHT22;16878;52.542;13.426;2022-12-05T16:37:28;4.40;99.90
30047;DHT22;16878;52.542;13.426;2022-12-05T16:39:54;4.30;99.90
30047;DHT22;16878;52.542;13.426;2022-12-05T16:42:23;4.30;99.90
30047;DHT22;16878;52.542;13.426;2022-12-05T16:44:53;4.30;99.90
30047;DHT22;16878;52.542;13.426;2022-12-05T16:47:47;4.40;99.90
30047;DHT22;16878;52.542;13.426;2022-12-05T16:53:11;4.40;99.90
30047;DHT22;16878;52.542;13.426;2022-12-05T16:55:38;4.40;99.90
30047;DHT22;16878;52.542;13.426;2022-12-05T16:58:04;4.40;99.90
30047;DHT22;16878;52.542;13.426;2022-12-05T17:00:30;4.40;99.90
30047;DHT22;16878;52.542;13.426;2022-12-05T17:02:57;4.40;99.90
30047;DHT22;16878;52.542;13.426;2022-12-05T17:05:22;4.40;99.90
30047;DHT22;16878;52.542;13.426;2022-12-05T17:07:49;4.40;99.90
30047;DHT22;16878;52.542;13.426;2022-12-05T17:10:15;4.40;99.90
30047;DHT22;16878;52.542;13.426;2022-12-05T17:12:40;4.40;99.90
30047;DHT22;16878;52.542;13.426;2022-12-05T17:15:11;4.50;99.90
30047;DHT22;16878;52.542;13.426;2022-12-05T17:17:38;4.50;99.90
30047;DHT22;16878;52.542;13.426;2022-12-05T17:20:04;4.50;99.90
30047;DHT22;16878;52.542;13.426;2022-12-05T17:22:30;4.50;99.90
30047;DHT22;16878;52.542;13.426;2022-12-05T17:24:55;4.50;99.90
30047;DHT22;16878;52.542;13.426;2022-12-05T17:27:23;4.50;99.90
30047;DHT22;16878;52.542;13.426;2022-12-05T17:29:49;4.50;99.90
30047;DHT22;16878;52.542;13.426;2022-12-05T17:32:14;4.50;99.90
30047;DHT22;16878;52.542;13.426;2022-12-05T17:34:40;4.50;99.90
30047;DHT22;16878;52.542;13.426;2022-12-05T17:37:06;4.50;99.90
30047;DHT22;16878;52.542;13.426;2022-12-05T17:39:31;4.50;99.90
30047;DHT22;16878;52.542;13.426;2022-12-05T17:41:57;4.50;99.90
30047;DHT22;16878;52.542;13.426;2022-12-05T17:44:22;4.50;99.90
30047;DHT22;16878;52.542;13.426;2022-12-05T17:46:48;4.50;99.90
30047;DHT22;16878;52.542;13.426;2022-12-05T17:49:16;4.50;99.90
30047;DHT22;16878;52.542;13.426;2022-12-05T17:51:42;4.50;99.90
30047;DHT22;16878;52.542;13.426;2022-12-05T17:54:11;4.50;99.90
30047;DHT22;16878;52.542;13.426;2022-12-05T17:56:36;4.50;99.90
30047;DHT22;16878;52.542;13.426;2022-12-05T17:59:02;4.50;99.90
30047;DHT22;16878;52.542;13.426;2022-12-05T18:01:27;4.50;99.90
30047;DHT22;16878;52.542;13.426;2022-12-05T18:03:55;4.50;99.90
30047;DHT22;16878;52.542;13.426;2022-12-05T18:06:23;4.50;99.90
30047;DHT22;16878;52.542;13.426;2022-12-05T18:08:51;4.60;99.90
30047;DHT22;16878;52.542;13.426;2022-12-05T18:11:16;4.60;99.90